createdAt,value
2018-11-06T00:00:16.750Z,69.03
2018-11-06T00:02:46.982Z,64.03
2018-11-06T00:05:18.479Z,65.47
2018-11-06T00:07:47.649Z,66.17
2018-11-06T00:10:16.755Z,65.97
2018-11-06T00:12:45.821Z,70.37
2018-11-06T00:15:14.937Z,65.57
2018-11-06T00:17:43.987Z,69.00
2018-11-06T00:20:14.116Z,63.80
2018-11-06T00:22:43.261Z,66.77
2018-11-06T00:25:13.744Z,69.00
2018-11-06T00:27:42.899Z,62.47
2018-11-06T00:30:13.157Z,66.93
2018-11-06T00:32:42.766Z,66.37
2018-11-06T00:35:13.122Z,71.63
2018-11-06T00:37:43.125Z,63.70
2018-11-06T00:40:12.257Z,62.70
2018-11-06T00:42:41.343Z,61.87
2018-11-06T00:45:14.926Z,64.53
2018-11-06T00:47:44.075Z,58.80
2018-11-06T00:50:13.923Z,61.87
2018-11-06T00:52:43.917Z,61.40
2018-11-06T00:55:12.970Z,63.07
2018-11-06T00:57:44.077Z,65.13
2018-11-06T01:00:15.285Z,60.30
2018-11-06T01:02:44.310Z,61.07
2018-11-06T01:05:14.120Z,56.77
2018-11-06T01:07:43.915Z,60.63
2018-11-06T01:10:13.092Z,58.73
2018-11-06T01:12:42.150Z,63.10
2018-11-06T01:15:12.650Z,64.87
2018-11-06T01:17:42.527Z,57.50
2018-11-06T01:20:13.625Z,60.80
2018-11-06T01:22:42.782Z,57.33
2018-11-06T01:25:12.231Z,63.57
2018-11-06T01:27:41.615Z,60.87
2018-11-06T01:30:15.665Z,61.47
2018-11-06T01:32:45.344Z,60.83
2018-11-06T01:35:15.047Z,56.40
2018-11-06T01:37:44.743Z,57.33
2018-11-06T01:40:15.078Z,62.40
2018-11-06T01:42:44.783Z,54.77
2018-11-06T01:45:15.015Z,56.73
2018-11-06T01:47:44.104Z,53.63
2018-11-06T01:50:16.386Z,58.17
2018-11-06T01:52:46.410Z,58.93
2018-11-06T01:55:15.514Z,58.67
2018-11-06T01:57:44.619Z,62.60
2018-11-06T02:00:15.548Z,57.63
2018-11-06T02:02:44.606Z,57.13
2018-11-06T02:05:14.624Z,56.07
2018-11-06T02:07:45.162Z,57.93
2018-11-06T02:10:14.993Z,54.27
2018-11-06T02:12:44.914Z,52.37
2018-11-06T02:15:13.999Z,59.77
2018-11-06T02:17:44.000Z,54.47
2018-11-06T02:20:13.822Z,55.87
2018-11-06T02:29:41.740Z,51.07
2018-11-06T02:32:10.788Z,53.47
2018-11-06T02:34:39.817Z,53.13
2018-11-06T02:37:08.829Z,54.23
2018-11-06T02:39:37.926Z,50.37
2018-11-06T02:42:07.082Z,52.03
2018-11-06T02:44:36.204Z,49.33
2018-11-06T02:47:05.553Z,52.17
2018-11-06T02:49:34.593Z,49.90
2018-11-06T02:52:03.738Z,53.00
2018-11-06T02:54:32.766Z,51.07
2018-11-06T02:57:01.779Z,52.23
2018-11-06T02:59:30.893Z,51.10
2018-11-06T03:02:00.018Z,51.53
2018-11-06T03:04:29.018Z,46.63
2018-11-06T03:06:58.070Z,49.40
2018-11-06T03:09:27.127Z,48.07
2018-11-06T03:11:56.138Z,47.53
2018-11-06T03:14:25.285Z,50.53
2018-11-06T03:16:54.992Z,48.43
2018-11-06T03:19:24.094Z,44.17
2018-11-06T03:21:53.747Z,44.17
2018-11-06T03:24:22.765Z,45.53
2018-11-06T03:26:51.892Z,41.67
2018-11-06T03:29:21.135Z,43.67
2018-11-06T03:31:50.267Z,45.53
2018-11-06T03:34:19.345Z,44.87
2018-11-06T03:36:48.441Z,44.53
2018-11-06T03:39:17.583Z,41.70
2018-11-06T03:41:46.663Z,44.23
2018-11-06T03:44:15.709Z,46.50
2018-11-06T03:46:44.722Z,45.53
2018-11-06T03:49:13.753Z,43.10
2018-11-06T03:51:42.839Z,40.57
2018-11-06T03:54:11.923Z,41.50
2018-11-06T03:56:41.017Z,39.63
2018-11-06T03:59:10.116Z,41.33
2018-11-06T04:01:39.245Z,38.63
2018-11-06T04:04:08.297Z,41.20
2018-11-06T04:06:37.377Z,40.13
2018-11-06T04:09:09.315Z,39.93
2018-11-06T04:11:38.881Z,40.90
2018-11-06T04:14:08.749Z,41.50
2018-11-06T04:16:38.333Z,37.13
2018-11-06T04:19:07.749Z,35.40
2018-11-06T04:21:38.283Z,34.73
2018-11-06T04:24:10.955Z,36.30
2018-11-06T04:26:40.453Z,35.07
2018-11-06T04:29:10.105Z,37.83
2018-11-06T04:31:39.895Z,38.23
2018-11-06T04:34:09.429Z,36.43
2018-11-06T04:36:38.509Z,36.67
2018-11-06T04:39:09.229Z,33.23
2018-11-06T04:41:38.385Z,33.80
2018-11-06T04:44:07.611Z,34.00
2018-11-06T04:46:36.615Z,30.07
2018-11-06T04:49:06.093Z,26.63
2018-11-06T04:51:35.265Z,28.50
2018-11-06T04:54:04.332Z,30.57
2018-11-06T04:56:33.419Z,27.83
2018-11-06T04:59:02.449Z,29.60
2018-11-06T05:01:31.517Z,26.70
2018-11-06T05:04:00.679Z,27.50
2018-11-06T05:06:29.781Z,22.77
2018-11-06T05:08:58.907Z,24.60
2018-11-06T05:11:27.951Z,21.87
2018-11-06T05:13:56.993Z,21.60
2018-11-06T05:16:26.043Z,20.63
2018-11-06T05:18:55.099Z,19.73
2018-11-06T05:21:24.145Z,17.60
2018-11-06T05:23:53.233Z,23.43
2018-11-06T05:26:22.363Z,17.83
2018-11-06T05:28:51.397Z,17.70
2018-11-06T05:31:20.529Z,18.30
2018-11-06T05:33:49.662Z,18.47
2018-11-06T05:36:18.671Z,15.60
2018-11-06T05:38:47.796Z,15.43
2018-11-06T05:41:16.958Z,15.07
2018-11-06T05:43:46.072Z,16.03
2018-11-06T05:46:15.087Z,13.33
2018-11-06T05:48:44.250Z,17.60
2018-11-06T05:51:13.306Z,15.50
2018-11-06T05:53:42.402Z,14.00
2018-11-06T05:56:11.498Z,15.10
2018-11-06T05:58:40.550Z,17.57
2018-11-06T06:01:09.772Z,14.30
2018-11-06T06:03:38.910Z,15.70
2018-11-06T06:06:07.970Z,16.77
2018-11-06T06:08:37.062Z,15.57
2018-11-06T06:11:06.567Z,14.20
2018-11-06T06:13:35.630Z,18.23
2018-11-06T06:16:04.698Z,14.20
2018-11-06T06:18:33.746Z,14.20
2018-11-06T06:21:02.888Z,17.83
2018-11-06T06:23:32.037Z,13.37
2018-11-06T06:26:01.150Z,17.27
2018-11-06T06:28:30.215Z,16.03
2018-11-06T06:30:59.354Z,16.43
2018-11-06T06:33:28.527Z,15.87
2018-11-06T06:35:58.746Z,14.50
2018-11-06T06:38:27.902Z,15.23
2018-11-06T06:40:57.163Z,15.00
2018-11-06T06:43:26.144Z,14.47
2018-11-06T06:45:55.253Z,15.27
2018-11-06T06:48:24.269Z,15.90
2018-11-06T06:50:53.329Z,19.43
2018-11-06T06:53:22.426Z,22.67
2018-11-06T06:55:51.576Z,21.57
2018-11-06T06:58:20.627Z,22.73
2018-11-06T07:00:49.744Z,20.83
2018-11-06T07:03:19.302Z,18.13
2018-11-06T07:05:48.393Z,18.73
2018-11-06T07:08:17.564Z,21.27
2018-11-06T07:10:46.679Z,20.90
2018-11-06T07:13:15.795Z,18.87
2018-11-06T07:15:44.893Z,18.87
2018-11-06T07:18:14.084Z,18.63
2018-11-06T07:20:43.201Z,19.83
2018-11-06T07:23:12.331Z,17.27
2018-11-06T07:25:41.468Z,20.13
2018-11-06T07:28:10.629Z,14.63
2018-11-06T07:30:39.741Z,14.40
2018-11-06T07:33:08.868Z,17.63
2018-11-06T07:35:38.123Z,14.00
2018-11-06T07:38:07.135Z,15.83
2018-11-06T07:40:36.361Z,17.57
2018-11-06T07:43:05.711Z,14.20
2018-11-06T07:45:34.739Z,16.93
2018-11-06T07:48:03.940Z,16.40
2018-11-06T07:50:33.194Z,17.73
2018-11-06T07:53:02.343Z,16.07
2018-11-06T07:55:31.468Z,16.07
2018-11-06T07:58:00.629Z,15.53
2018-11-06T08:00:29.736Z,15.63
2018-11-06T08:02:58.849Z,20.70
2018-11-06T08:05:27.928Z,14.63
2018-11-06T08:07:56.986Z,14.43
2018-11-06T08:10:26.053Z,15.03
2018-11-06T08:12:55.129Z,12.53
2018-11-06T08:15:24.189Z,16.03
2018-11-06T08:17:53.318Z,12.93
2018-11-06T08:20:22.460Z,12.77
2018-11-06T08:22:51.492Z,15.33
2018-11-06T08:25:20.582Z,15.10
2018-11-06T08:27:49.712Z,15.60
2018-11-06T08:30:18.787Z,13.73
2018-11-06T08:32:48.184Z,12.90
2018-11-06T08:35:17.970Z,13.20
2018-11-06T08:37:47.180Z,14.77
2018-11-06T08:40:17.410Z,13.77
2018-11-06T08:42:46.626Z,14.20
2018-11-06T08:45:16.408Z,11.63
2018-11-06T08:47:46.002Z,9.17
2018-11-06T08:50:16.554Z,10.87
2018-11-06T08:52:45.574Z,12.60
2018-11-06T08:55:15.462Z,11.20
2018-11-06T08:57:45.046Z,12.93
2018-11-06T09:00:15.786Z,10.93
2018-11-06T09:02:45.873Z,9.67
2018-11-06T09:05:16.034Z,11.47
2018-11-06T09:07:45.235Z,9.87
2018-11-06T09:10:15.026Z,9.97
2018-11-06T09:12:44.062Z,11.43
2018-11-06T09:15:14.464Z,10.70
2018-11-06T09:17:43.590Z,10.00
2018-11-06T09:20:13.782Z,10.27
2018-11-06T09:22:42.874Z,11.27
2018-11-06T09:25:13.356Z,9.97
2018-11-06T09:27:43.025Z,11.53
2018-11-06T09:30:15.878Z,10.93
2018-11-06T09:32:44.958Z,8.50
2018-11-06T09:35:14.551Z,7.67
2018-11-06T09:37:44.081Z,14.13
2018-11-06T09:40:15.776Z,9.50
2018-11-06T09:42:44.899Z,10.00
2018-11-06T09:45:14.316Z,11.07
2018-11-06T09:47:43.349Z,10.40
2018-11-06T09:50:14.317Z,7.80
2018-11-06T09:52:44.199Z,10.50
2018-11-06T09:55:13.718Z,8.57
2018-11-06T09:57:42.807Z,10.30
2018-11-06T10:00:14.394Z,11.53
2018-11-06T10:02:43.621Z,11.53
2018-11-06T10:05:13.493Z,9.73
2018-11-06T10:07:42.607Z,10.40
2018-11-06T10:10:13.913Z,13.23
2018-11-06T10:12:43.216Z,13.23
2018-11-06T10:15:14.077Z,12.27
2018-11-06T10:17:45.071Z,12.37
2018-11-06T10:20:15.241Z,12.73
2018-11-06T10:22:44.231Z,11.30
2018-11-06T10:25:13.332Z,10.37
2018-11-06T10:27:42.685Z,12.57
2018-11-06T10:30:14.693Z,9.47
2018-11-06T10:32:44.409Z,13.63
2018-11-06T10:35:13.599Z,11.80
2018-11-06T10:37:42.683Z,9.70
2018-11-06T10:40:15.454Z,14.23
2018-11-06T10:42:44.971Z,11.07
2018-11-06T10:45:14.079Z,10.63
2018-11-06T10:47:43.130Z,11.80
2018-11-06T10:50:13.147Z,12.77
2018-11-06T10:52:42.590Z,12.57
2018-11-06T10:55:11.753Z,11.43
2018-11-06T10:57:41.460Z,14.37
2018-11-06T11:00:17.115Z,11.90
2018-11-06T11:02:51.627Z,13.97
2018-11-06T11:05:22.371Z,13.27
2018-11-06T11:07:51.435Z,14.97
2018-11-06T11:10:20.416Z,11.03
2018-11-06T11:12:49.562Z,11.70
2018-11-06T11:15:18.750Z,13.87
2018-11-06T11:17:47.852Z,13.23
2018-11-06T11:20:17.104Z,11.77
2018-11-06T11:22:46.129Z,10.07
2018-11-06T11:25:16.126Z,13.60
2018-11-06T11:27:45.990Z,12.73
2018-11-06T11:30:15.982Z,10.53
2018-11-06T11:32:46.505Z,13.77
2018-11-06T11:35:16.028Z,11.50
2018-11-06T11:37:45.281Z,17.57
2018-11-06T11:40:15.252Z,10.80
2018-11-06T11:42:44.529Z,11.07
2018-11-06T11:45:14.545Z,11.53
2018-11-06T11:47:43.590Z,16.33
2018-11-06T11:50:13.962Z,14.43
2018-11-06T11:52:43.443Z,12.43
2018-11-06T11:55:12.546Z,16.60
2018-11-06T11:57:41.746Z,11.57
2018-11-06T12:00:13.452Z,14.43
2018-11-06T12:02:42.600Z,10.77
2018-11-06T12:05:12.340Z,10.60
2018-11-06T12:07:41.539Z,14.03
2018-11-06T12:10:11.529Z,12.67
2018-11-06T12:12:40.965Z,15.13
2018-11-06T12:15:13.403Z,12.27
2018-11-06T12:17:43.122Z,13.10
2018-11-06T12:20:13.079Z,10.93
2018-11-06T12:22:42.154Z,13.23
2018-11-06T12:25:11.885Z,11.50
2018-11-06T12:27:40.860Z,10.87
2018-11-06T12:30:12.080Z,10.43
2018-11-06T12:32:41.521Z,14.87
2018-11-06T12:35:11.728Z,12.80
2018-11-06T12:37:41.239Z,12.97
2018-11-06T12:40:11.352Z,10.80
2018-11-06T12:42:41.036Z,12.63
2018-11-06T12:45:11.650Z,12.17
2018-11-06T12:47:41.113Z,10.80
2018-11-06T12:50:10.454Z,12.27
2018-11-06T12:52:39.781Z,14.37
2018-11-06T12:55:10.219Z,16.23
2018-11-06T12:57:39.523Z,10.40
2018-11-06T13:00:10.976Z,10.40
2018-11-06T13:02:40.079Z,14.47
2018-11-06T13:05:09.459Z,13.00
2018-11-06T13:07:39.895Z,13.30
2018-11-06T13:10:09.698Z,13.73
2018-11-06T13:12:39.301Z,12.83
2018-11-06T13:15:08.661Z,15.10
2018-11-06T13:17:38.040Z,11.60
2018-11-06T13:20:08.849Z,15.80
2018-11-06T13:22:38.467Z,14.60
2018-11-06T13:25:07.847Z,11.97
2018-11-06T13:27:37.789Z,12.33
2018-11-06T13:30:09.267Z,12.07
2018-11-06T13:32:38.532Z,11.70
2018-11-06T13:35:08.049Z,13.27
2018-11-06T13:37:37.168Z,10.20
2018-11-06T13:40:08.409Z,10.67
2018-11-06T13:42:37.802Z,10.93
2018-11-06T13:45:09.064Z,10.30
2018-11-06T13:47:37.983Z,10.00
2018-11-06T13:50:08.456Z,10.23
2018-11-06T13:52:37.964Z,12.13
2018-11-06T13:55:08.562Z,9.93
2018-11-06T13:57:37.620Z,13.40
2018-11-06T14:00:12.991Z,8.97
2018-11-06T14:02:42.123Z,12.00
2018-11-06T14:05:11.277Z,12.67
2018-11-06T14:07:40.327Z,13.17
2018-11-06T14:10:09.721Z,11.27
2018-11-06T14:12:39.117Z,9.50
2018-11-06T14:15:08.250Z,12.60
2018-11-06T14:17:37.514Z,11.43
2018-11-06T14:20:08.473Z,8.70
2018-11-06T14:22:37.767Z,11.70
2018-11-06T14:25:07.518Z,10.03
2018-11-06T14:27:36.651Z,12.20
2018-11-06T14:30:09.133Z,13.17
2018-11-06T14:32:38.178Z,12.03
2018-11-06T14:35:08.547Z,10.17
2018-11-06T14:37:37.771Z,11.60
2018-11-06T14:40:08.112Z,13.23
2018-11-06T14:42:37.785Z,11.63
2018-11-06T14:45:08.437Z,10.67
2018-11-06T14:47:37.599Z,9.73
2018-11-06T14:50:07.632Z,9.43
2018-11-06T14:52:37.130Z,12.00
2018-11-06T14:55:07.520Z,9.67
2018-11-06T14:57:36.671Z,10.70
2018-11-06T15:00:07.802Z,7.93
2018-11-06T15:02:36.918Z,9.07
2018-11-06T15:05:06.042Z,9.67
2018-11-06T15:07:35.056Z,11.23
2018-11-06T15:10:04.597Z,9.67
2018-11-06T15:12:34.467Z,15.90
2018-11-06T15:15:03.451Z,11.47
2018-11-06T15:17:32.534Z,10.50
2018-11-06T15:20:01.582Z,13.80
2018-11-06T15:22:30.684Z,11.30
2018-11-06T15:24:59.854Z,11.77
2018-11-06T15:27:29.083Z,11.77
2018-11-06T15:29:58.082Z,13.67
2018-11-06T15:32:27.280Z,12.80
2018-11-06T15:34:56.372Z,13.60
2018-11-06T15:37:25.521Z,12.77
2018-11-06T15:39:54.776Z,14.97
2018-11-06T15:42:23.867Z,12.17
2018-11-06T15:44:52.994Z,9.37
2018-11-06T15:47:22.260Z,13.87
2018-11-06T15:49:52.914Z,14.13
2018-11-06T15:52:22.190Z,14.87
2018-11-06T15:54:51.204Z,13.10
2018-11-06T15:57:20.334Z,13.80
2018-11-06T15:59:49.407Z,13.93
2018-11-06T16:02:18.772Z,11.40
2018-11-06T16:04:47.942Z,15.10
2018-11-06T16:07:17.407Z,13.83
2018-11-06T16:09:46.494Z,11.27
2018-11-06T16:12:15.583Z,10.57
2018-11-06T16:14:44.645Z,12.90
2018-11-06T16:17:13.760Z,13.70
2018-11-06T16:19:42.847Z,15.20
2018-11-06T16:22:11.963Z,13.87
2018-11-06T16:24:41.043Z,14.67
2018-11-06T16:27:10.175Z,10.93
2018-11-06T16:29:39.275Z,11.53
2018-11-06T16:32:08.264Z,11.97
2018-11-06T16:34:37.956Z,12.17
2018-11-06T16:37:07.034Z,11.63
2018-11-06T16:39:36.187Z,10.60
2018-11-06T16:42:05.271Z,12.47
2018-11-06T16:44:34.267Z,14.10
2018-11-06T16:47:03.405Z,12.57
2018-11-06T16:49:33.109Z,10.27
2018-11-06T16:52:02.205Z,9.30
2018-11-06T16:54:31.250Z,14.17
2018-11-06T16:57:00.906Z,13.43
2018-11-06T16:59:29.996Z,14.03
2018-11-06T17:01:58.981Z,15.67
2018-11-06T17:04:28.007Z,16.73
2018-11-06T17:06:57.139Z,12.20
2018-11-06T17:09:26.226Z,11.60
2018-11-06T17:11:55.294Z,13.33
2018-11-06T17:14:24.382Z,15.27
2018-11-06T17:16:53.506Z,14.17
2018-11-06T17:19:22.614Z,14.27
2018-11-06T17:21:51.777Z,17.17
2018-11-06T17:24:20.776Z,14.33
2018-11-06T17:26:49.862Z,11.20
2018-11-06T17:29:18.973Z,13.60
2018-11-06T17:31:48.038Z,15.47
2018-11-06T17:34:17.170Z,15.27
2018-11-06T17:36:46.260Z,13.33
2018-11-06T17:39:15.359Z,16.63
2018-11-06T17:41:45.057Z,16.77
2018-11-06T17:44:14.092Z,11.30
2018-11-06T17:46:43.230Z,13.80
2018-11-06T17:49:12.482Z,13.53
2018-11-06T17:51:41.982Z,13.50
2018-11-06T17:54:11.094Z,15.27
2018-11-06T17:56:40.362Z,14.07
2018-11-06T17:59:09.462Z,13.67
2018-11-06T18:01:38.514Z,15.40
2018-11-06T18:04:07.801Z,12.63
2018-11-06T18:06:36.738Z,13.53
2018-11-06T18:09:09.761Z,12.63
2018-11-06T18:11:38.820Z,13.53
2018-11-06T18:14:07.912Z,12.67
2018-11-06T18:16:37.014Z,10.70
2018-11-06T18:19:06.066Z,12.53
2018-11-06T18:21:35.106Z,14.77
2018-11-06T18:24:04.354Z,13.30
2018-11-06T18:26:33.405Z,14.30
2018-11-06T18:29:02.495Z,13.53
2018-11-06T18:31:31.605Z,15.57
2018-11-06T18:34:00.650Z,12.97
2018-11-06T18:36:29.823Z,15.43
2018-11-06T18:38:58.976Z,12.37
2018-11-06T18:41:28.606Z,13.60
2018-11-06T18:43:57.729Z,13.73
2018-11-06T18:46:27.616Z,13.70
2018-11-06T18:48:56.688Z,15.83
2018-11-06T18:51:25.845Z,12.00
2018-11-06T18:53:54.874Z,12.90
2018-11-06T18:56:23.961Z,14.63
2018-11-06T18:58:52.970Z,18.37
2018-11-06T19:01:22.150Z,12.70
2018-11-06T19:03:51.315Z,15.53
2018-11-06T19:06:20.401Z,15.80
2018-11-06T19:08:49.439Z,12.53
2018-11-06T19:11:18.573Z,15.70
2018-11-06T19:13:47.702Z,13.30
2018-11-06T19:16:16.753Z,13.37
2018-11-06T19:18:45.839Z,18.13
2018-11-06T19:21:14.931Z,14.70
2018-11-06T19:23:44.036Z,17.03
2018-11-06T19:26:13.090Z,13.80
2018-11-06T19:28:42.240Z,16.30
2018-11-06T19:31:11.336Z,16.57
2018-11-06T19:33:40.412Z,13.80
2018-11-06T19:36:09.464Z,15.00
2018-11-06T19:38:38.564Z,12.90
2018-11-06T19:41:07.884Z,14.50
2018-11-06T19:43:37.269Z,12.67
2018-11-06T19:46:06.436Z,14.87
2018-11-06T19:48:35.581Z,15.93
2018-11-06T19:51:04.661Z,14.20
2018-11-06T19:53:33.863Z,12.23
2018-11-06T19:56:02.885Z,14.37
2018-11-06T19:58:32.063Z,14.63
2018-11-06T20:01:01.241Z,15.80
2018-11-06T20:03:30.317Z,16.07
2018-11-06T20:05:59.469Z,15.53
2018-11-06T20:08:28.492Z,15.30
2018-11-06T20:10:57.573Z,13.80
2018-11-06T20:13:26.693Z,15.97
2018-11-06T20:15:55.905Z,13.60
2018-11-06T20:18:24.829Z,15.37
2018-11-06T20:20:54.530Z,13.63
2018-11-06T20:23:23.713Z,13.70
2018-11-06T20:25:52.747Z,15.40
2018-11-06T20:28:21.782Z,15.33
2018-11-06T20:30:50.888Z,13.60
2018-11-06T20:33:20.039Z,16.33
2018-11-06T20:35:49.026Z,13.83
2018-11-06T20:38:18.107Z,13.43
2018-11-06T20:40:47.221Z,16.60
2018-11-06T20:43:16.331Z,14.83
2018-11-06T20:45:45.379Z,17.73
2018-11-06T20:48:14.508Z,14.90
2018-11-06T20:50:43.625Z,12.77
2018-11-06T20:53:12.737Z,12.70
2018-11-06T20:55:41.864Z,12.80
2018-11-06T20:58:11.851Z,14.70
2018-11-06T21:00:40.919Z,14.30
2018-11-06T21:03:09.954Z,14.67
2018-11-06T21:05:38.973Z,13.77
2018-11-06T21:08:08.055Z,11.10
2018-11-06T21:10:37.241Z,11.40
2018-11-06T21:13:06.404Z,11.03
2018-11-06T21:15:35.423Z,9.23
2018-11-06T21:18:04.560Z,9.80
2018-11-06T21:20:33.607Z,9.17
2018-11-06T21:23:02.668Z,10.43
2018-11-06T21:25:31.780Z,7.97
2018-11-06T21:28:00.846Z,8.23
2018-11-06T21:30:29.961Z,9.17
2018-11-06T21:32:59.005Z,6.23
2018-11-06T21:35:28.161Z,5.50
2018-11-06T21:37:57.150Z,6.73
2018-11-06T21:40:26.142Z,7.13
2018-11-06T21:42:55.235Z,8.00
2018-11-06T21:45:24.310Z,7.30
2018-11-06T21:47:53.422Z,6.67
2018-11-06T21:50:22.510Z,8.73
2018-11-06T21:52:51.666Z,6.20
2018-11-06T21:55:20.818Z,6.90
2018-11-06T21:57:49.843Z,7.97
2018-11-06T22:00:20.271Z,5.43
2018-11-06T22:02:49.486Z,6.17
2018-11-06T22:05:19.802Z,5.17
2018-11-06T22:07:49.128Z,5.23
2018-11-06T22:10:19.546Z,5.40
2018-11-06T22:12:48.876Z,5.10
2018-11-06T22:15:18.756Z,3.60
2018-11-06T22:17:47.847Z,4.63
2018-11-06T22:20:18.294Z,6.03
2018-11-06T22:22:47.880Z,5.53
2018-11-06T22:25:16.911Z,5.13
2018-11-06T22:27:46.004Z,5.97
2018-11-06T22:30:15.887Z,3.53
2018-11-06T22:32:45.688Z,3.57
2018-11-06T22:35:16.019Z,5.83
2018-11-06T22:37:45.030Z,4.00
2018-11-06T22:40:15.332Z,4.47
2018-11-06T22:42:44.390Z,4.57
2018-11-06T22:45:14.637Z,3.90
2018-11-06T22:47:43.762Z,6.87
2018-11-06T22:50:15.018Z,2.63
2018-11-06T22:52:44.591Z,3.80
2018-11-06T22:55:13.800Z,3.47
2018-11-06T22:57:43.121Z,4.97
2018-11-06T23:00:18.756Z,2.80
2018-11-06T23:02:47.912Z,2.87
2018-11-06T23:05:16.914Z,5.50
2018-11-06T23:07:51.304Z,2.80
2018-11-06T23:10:20.349Z,6.07
2018-11-06T23:12:49.495Z,3.60
2018-11-06T23:15:18.569Z,6.07
2018-11-06T23:17:47.728Z,9.23
2018-11-06T23:20:16.772Z,3.20
2018-11-06T23:22:45.861Z,3.77
2018-11-06T23:25:15.064Z,4.10
2018-11-06T23:27:44.141Z,6.37
2018-11-06T23:30:14.473Z,3.43
2018-11-06T23:32:43.857Z,3.73
2018-11-06T23:35:12.929Z,3.43
2018-11-06T23:37:41.957Z,2.20
2018-11-06T23:40:12.049Z,2.57
2018-11-06T23:42:41.574Z,3.50
2018-11-06T23:45:10.842Z,3.63
2018-11-06T23:47:39.901Z,2.30
2018-11-06T23:50:09.860Z,5.97
2018-11-06T23:52:39.303Z,4.27
2018-11-06T23:55:08.788Z,3.30
2018-11-06T23:57:38.331Z,4.57
